Time;durP1;ratioP1;P1;durP2;ratioP2;P2;SDS_P1;SDS_P2;PMS_P1;PMS_P2;Temp;Humidity;BMP_temperature;BMP_pressure;BME280_temperature;BME280_humidity;BME280_pressure;Samples;Min_cycle;Max_cycle;Signal;HPM_P1;HPM_P2
2023/06/14 00:02:17;;;;;;;;;18.00;15.00;;;;;25.24;33.95;100844.28;5088318;27;54946;-50
2023/06/14 00:04:43;;;;;;;;;15.33;15.33;;;;;25.18;33.56;100844.97;5088271;27;45460;-48
2023/06/14 00:07:08;;;;;;;;;18.00;16.00;;;;;25.17;34.11;100842.44;5078333;27;45303;-50
2023/06/14 00:09:34;;;;;;;;;14.33;13.33;;;;;25.12;33.69;100839.38;5090944;27;45380;-50
2023/06/14 00:12:00;;;;;;;;;16.67;16.67;;;;;25.07;34.09;100848.91;5088473;27;46246;-49
2023/06/14 00:14:25;;;;;;;;;19.00;14.33;;;;;25.02;33.86;100848.56;5080945;27;45250;-51
2023/06/14 00:16:52;;;;;;;;;14.00;14.00;;;;;24.99;34.35;100848.06;5097647;27;67196;-51
2023/06/14 00:19:17;;;;;;;;;11.00;11.00;;;;;24.94;34.29;100843.97;5095729;27;45458;-51
2023/06/14 00:21:43;;;;;;;;;15.00;14.33;;;;;24.91;33.96;100849.75;5091756;27;48222;-48
2023/06/14 00:24:08;;;;;;;;;14.00;14.00;;;;;24.88;34.79;100852.81;5084727;27;45358;-52
2023/06/14 00:26:33;;;;;;;;;20.00;17.67;;;;;24.85;34.73;100850.44;5099857;27;45365;-50
2023/06/14 00:28:59;;;;;;;;;17.00;16.67;;;;;24.81;34.54;100854.53;5086384;27;55893;-51
2023/06/14 00:31:24;;;;;;;;;14.00;12.33;;;;;24.77;34.67;100856.72;5087653;27;64761;-49
2023/06/14 00:33:50;;;;;;;;;15.67;15.00;;;;;24.74;34.61;100864.34;5084061;27;45491;-51
2023/06/14 00:36:15;;;;;;;;;17.00;16.33;;;;;24.71;34.62;100853.81;5083932;27;45451;-50
2023/06/14 00:38:40;;;;;;;;;20.33;20.33;;;;;24.70;34.89;100868.44;5095106;27;61850;-51
2023/06/14 00:41:06;;;;;;;;;14.00;14.00;;;;;24.68;35.16;100860.44;5086196;27;71655;-50
2023/06/14 00:43:31;;;;;;;;;16.00;16.00;;;;;24.66;35.39;100854.31;5083676;27;45591;-50
2023/06/14 00:45:56;;;;;;;;;22.00;16.33;;;;;24.64;35.00;100855.50;5087579;27;45429;-51
2023/06/14 00:48:22;;;;;;;;;17.67;15.67;;;;;24.63;35.14;100872.78;5088183;27;45711;-49
2023/06/14 00:50:49;;;;;;;;;18.00;16.33;;;;;24.60;35.23;100863.09;5082895;27;72929;-55
2023/06/14 00:53:18;;;;;;;;;16.67;14.33;;;;;24.58;35.11;100867.88;5083119;27;45520;-51
2023/06/14 00:55:43;;;;;;;;;15.67;15.33;;;;;24.55;35.36;100876.38;5094383;27;45346;-49
2023/06/14 00:58:09;;;;;;;;;17.33;17.33;;;;;24.51;35.44;100864.97;5089672;27;45761;-51
2023/06/14 01:00:35;;;;;;;;;18.67;17.00;;;;;24.47;35.61;100865.47;5087915;27;45831;-51
2023/06/14 01:03:01;;;;;;;;;16.00;14.00;;;;;24.40;35.40;100870.72;5084633;27;45700;-49
2023/06/14 01:05:26;;;;;;;;;17.67;17.33;;;;;24.36;35.88;100872.06;5092700;27;45464;-50
2023/06/14 01:07:58;;;;;;;;;18.67;16.67;;;;;24.33;35.59;100872.41;5080403;27;52802;-49
2023/06/14 01:10:53;;;;;;;;;17.00;17.00;;;;;24.31;35.57;100871.72;5092136;27;46133;-51
2023/06/14 01:13:27;;;;;;;;;18.33;17.67;;;;;24.27;35.52;100869.34;5084802;27;45432;-49
2023/06/14 01:15:52;;;;;;;;;18.67;16.33;;;;;24.21;35.81;100866.41;5089450;27;45586;-50
2023/06/14 01:18:18;;;;;;;;;15.33;14.67;;;;;24.20;36.08;100867.44;5105988;27;45502;-50
2023/06/14 01:20:50;;;;;;;;;17.67;15.00;;;;;24.18;35.60;100866.75;5079801;27;48077;-50
2023/06/14 01:23:20;;;;;;;;;17.67;16.00;;;;;24.16;35.69;100861.47;5080313;27;45438;-48
2023/06/14 01:25:46;;;;;;;;;18.67;17.00;;;;;24.14;36.18;100866.22;5085144;27;45911;-50
2023/06/14 01:28:14;;;;;;;;;15.67;15.67;;;;;24.13;36.27;100864.50;5083326;27;45411;-48
2023/06/14 01:30:45;;;;;;;;;16.67;16.67;;;;;24.11;36.53;100872.00;5085481;27;46052;-54
2023/06/14 01:33:21;;;;;;;;;16.00;16.00;;;;;24.10;36.54;100862.13;5083838;27;45422;-51
2023/06/14 01:35:48;;;;;;;;;17.33;17.33;;;;;24.07;36.69;100860.59;5084613;27;45456;-50
2023/06/14 01:38:15;;;;;;;;;18.00;17.33;;;;;24.05;37.00;100864.50;5084019;27;45472;-48
2023/06/14 01:40:44;;;;;;;;;21.67;20.33;;;;;24.01;37.32;100863.13;5101944;27;46193;-49
2023/06/14 01:43:10;;;;;;;;;15.67;15.00;;;;;23.97;37.22;100857.16;5100516;27;45588;-49
2023/06/14 01:45:36;;;;;;;;;14.67;14.00;;;;;23.95;36.89;100853.78;5098640;27;45313;-49
2023/06/14 01:48:02;;;;;;;;;18.33;18.33;;;;;23.92;37.08;100854.06;5101749;27;45537;-49
2023/06/14 01:50:29;;;;;;;;;18.67;17.00;;;;;23.90;37.36;100861.56;5093320;27;46333;-49
2023/06/14 01:52:55;;;;;;;;;19.67;15.33;;;;;23.88;37.71;100858.09;5095939;27;45838;-49
2023/06/14 01:55:21;;;;;;;;;19.67;16.67;;;;;23.86;37.94;100865.56;5079688;27;48074;-52
2023/06/14 01:57:47;;;;;;;;;14.00;13.33;;;;;23.83;38.10;100863.16;5089132;27;45468;-51
2023/06/14 02:00:14;;;;;;;;;18.33;16.67;;;;;23.79;38.07;100868.06;5089735;27;73616;-52
2023/06/14 02:02:40;;;;;;;;;17.67;16.67;;;;;23.76;38.61;100861.09;5081548;27;45407;-51
2023/06/14 02:05:05;;;;;;;;;16.67;16.67;;;;;23.73;38.32;100864.16;5083768;27;45515;-52
2023/06/14 02:07:31;;;;;;;;;21.67;20.00;;;;;23.69;38.55;100864.63;5083566;27;45382;-52
2023/06/14 02:09:56;;;;;;;;;14.67;11.67;;;;;23.63;38.67;100868.84;5087902;27;72316;-51
2023/06/14 02:12:21;;;;;;;;;18.33;17.33;;;;;23.60;38.70;100861.88;5087876;27;64061;-50
2023/06/14 02:14:48;;;;;;;;;17.67;17.33;;;;;23.58;38.99;100863.91;5089339;27;62871;-49
2023/06/14 02:17:13;;;;;;;;;21.00;21.00;;;;;23.55;39.18;100869.63;5083933;27;45295;-51
2023/06/14 02:19:39;;;;;;;;;23.33;19.67;;;;;23.51;39.24;100879.13;5082106;27;45395;-52
2023/06/14 02:22:04;;;;;;;;;20.00;19.33;;;;;23.49;39.51;100872.97;5083734;27;45437;-52
2023/06/14 02:24:30;;;;;;;;;22.67;22.00;;;;;23.48;39.53;100871.31;5092711;27;51029;-52
2023/06/14 02:26:55;;;;;;;;;22.67;20.33;;;;;23.44;40.74;100865.34;5082427;27;54527;-51
2023/06/14 02:29:20;;;;;;;;;20.00;20.00;;;;;23.41;40.55;100871.09;5084271;27;48589;-51
2023/06/14 02:31:48;;;;;;;;;21.00;20.00;;;;;23.39;40.77;100866.84;5081769;27;46834;-49
2023/06/14 02:34:13;;;;;;;;;25.00;22.33;;;;;23.36;41.05;100878.84;5079944;27;45430;-51
2023/06/14 02:36:41;;;;;;;;;24.33;23.33;;;;;23.32;41.08;100879.31;5084138;27;45646;-50
2023/06/14 02:39:07;;;;;;;;;23.00;21.33;;;;;23.27;41.64;100871.63;5085157;27;47461;-49
2023/06/14 02:41:32;;;;;;;;;26.67;25.33;;;;;23.22;41.90;100877.56;5086302;27;45431;-51
2023/06/14 02:43:58;;;;;;;;;24.33;22.33;;;;;23.18;42.05;100878.88;5085974;27;66622;-52
2023/06/14 02:46:23;;;;;;;;;25.00;23.67;;;;;23.14;42.53;100874.78;5087790;27;45483;-51
2023/06/14 02:48:49;;;;;;;;;26.00;26.00;;;;;23.09;42.57;100879.81;5087298;27;73900;-51
2023/06/14 02:51:14;;;;;;;;;26.33;23.00;;;;;23.04;42.90;100884.84;5090724;27;45364;-52
2023/06/14 02:53:40;;;;;;;;;24.33;23.00;;;;;23.00;42.67;100881.59;5095498;27;45350;-51
2023/06/14 02:56:05;;;;;;;;;23.67;22.67;;;;;22.94;43.54;100885.78;5090496;27;46941;-51
2023/06/14 02:58:31;;;;;;;;;22.00;20.00;;;;;22.91;43.38;100882.53;5084102;27;73752;-51
2023/06/14 03:00:56;;;;;;;;;22.00;22.00;;;;;22.86;43.24;100877.56;5078213;27;45442;-51
2023/06/14 03:03:24;;;;;;;;;28.33;24.67;;;;;22.83;43.54;100883.28;5089951;27;45784;-51
2023/06/14 03:05:51;;;;;;;;;28.33;25.67;;;;;22.80;43.72;100891.72;5090266;27;45501;-49
2023/06/14 03:08:19;;;;;;;;;24.33;21.00;;;;;22.77;44.07;100886.63;5087760;27;46592;-52
2023/06/14 03:10:48;;;;;;;;;24.00;22.33;;;;;22.76;44.43;100893.03;5091521;27;45354;-52
2023/06/14 03:13:15;;;;;;;;;25.33;23.67;;;;;22.73;43.79;100896.06;5087840;27;45426;-49
2023/06/14 03:15:41;;;;;;;;;27.33;24.33;;;;;22.70;44.31;100890.97;5088310;27;47176;-50
2023/06/14 03:18:09;;;;;;;;;25.67;25.33;;;;;22.67;44.85;100894.84;5082165;27;46601;-51
2023/06/14 03:20:35;;;;;;;;;23.00;20.67;;;;;22.62;44.87;100899.88;5084303;27;45475;-52
2023/06/14 03:23:02;;;;;;;;;27.33;24.33;;;;;22.60;44.53;100899.16;5092807;27;45320;-52
2023/06/14 03:25:29;;;;;;;;;27.33;22.33;;;;;22.58;44.65;100909.28;5085300;27;46289;-50
2023/06/14 03:27:55;;;;;;;;;24.67;23.00;;;;;22.55;44.64;100913.16;5088262;27;46934;-49
2023/06/14 03:30:21;;;;;;;;;30.00;24.67;;;;;22.53;44.94;100903.47;5083739;27;45430;-50
2023/06/14 03:32:46;;;;;;;;;26.67;22.67;;;;;22.52;45.23;100908.03;5083556;27;45455;-51
2023/06/14 03:35:16;;;;;;;;;25.33;24.67;;;;;22.51;45.38;100910.91;5079746;27;45571;-49
2023/06/14 03:37:43;;;;;;;;;26.67;25.67;;;;;22.47;45.16;100910.34;5079986;27;45783;-51
2023/06/14 03:40:08;;;;;;;;;22.67;22.67;;;;;22.45;45.04;100910.53;5082974;27;45779;-49
2023/06/14 03:42:34;;;;;;;;;25.33;24.00;;;;;22.44;45.29;100916.09;5084956;27;45568;-51
2023/06/14 03:44:59;;;;;;;;;21.33;21.33;;;;;22.42;45.77;100915.38;5079115;27;45395;-51
2023/06/14 03:47:24;;;;;;;;;30.00;25.33;;;;;22.40;45.72;100918.25;5077604;27;74808;-50
2023/06/14 03:49:50;;;;;;;;;25.33;23.00;;;;;22.39;46.00;100921.13;5078811;27;45415;-51
2023/06/14 03:52:17;;;;;;;;;27.33;26.00;;;;;22.36;46.11;100924.97;5088720;27;45501;-51
2023/06/14 03:54:44;;;;;;;;;28.33;28.33;;;;;22.35;46.31;100925.94;5084732;27;45572;-51
2023/06/14 03:57:10;;;;;;;;;25.00;22.00;;;;;22.35;45.83;100927.81;5084653;27;46434;-49
2023/06/14 03:59:36;;;;;;;;;24.00;24.00;;;;;22.34;46.02;100932.34;5082854;27;45442;-51
2023/06/14 04:02:02;;;;;;;;;27.67;23.33;;;;;22.34;46.41;100928.81;5082993;27;45277;-49
2023/06/14 04:04:29;;;;;;;;;29.67;26.33;;;;;22.31;46.49;100930.81;5081253;27;45392;-49
2023/06/14 04:06:56;;;;;;;;;26.00;23.00;;;;;22.30;46.16;100934.50;5081750;27;45725;-50
2023/06/14 04:09:22;;;;;;;;;27.00;24.33;;;;;22.30;47.04;100933.66;5079418;27;45479;-48
2023/06/14 04:11:47;;;;;;;;;25.33;23.00;;;;;22.30;46.63;100933.66;5087707;27;45410;-48
2023/06/14 04:14:13;;;;;;;;;27.00;24.00;;;;;22.31;46.46;100936.22;5082878;27;70467;-49
2023/06/14 04:16:38;;;;;;;;;28.00;27.00;;;;;22.34;46.69;100939.66;5086001;27;70510;-49
2023/06/14 04:19:03;;;;;;;;;26.00;22.67;;;;;22.35;46.40;100942.19;5083611;27;45405;-52
2023/06/14 04:21:29;;;;;;;;;25.00;24.00;;;;;22.36;46.11;100943.94;5087768;27;45714;-51
2023/06/14 04:23:55;;;;;;;;;26.33;25.00;;;;;22.37;45.90;100945.66;5086604;27;45162;-51
2023/06/14 04:26:23;;;;;;;;;28.67;23.67;;;;;22.39;46.20;100951.75;5080557;27;46377;-49
2023/06/14 04:28:49;;;;;;;;;27.00;27.00;;;;;22.39;46.23;100959.88;5079351;27;45600;-49
2023/06/14 04:31:16;;;;;;;;;26.33;22.67;;;;;22.42;45.80;100956.03;5082354;27;45433;-50
2023/06/14 04:33:46;;;;;;;;;22.67;19.00;;;;;22.43;46.55;100960.44;5081834;27;45451;-49
2023/06/14 04:36:12;;;;;;;;;25.67;21.33;;;;;22.44;46.27;100962.16;5088209;27;46493;-49
2023/06/14 04:38:38;;;;;;;;;29.33;27.33;;;;;22.45;46.55;100961.16;5085162;27;45799;-49
2023/06/14 04:41:03;;;;;;;;;27.00;24.67;;;;;22.46;46.41;100962.84;5080641;27;47067;-51
2023/06/14 04:43:29;;;;;;;;;25.00;23.00;;;;;22.49;46.26;100964.41;5079032;27;45860;-51
2023/06/14 04:45:56;;;;;;;;;26.33;24.67;;;;;22.50;46.07;100961.53;5082955;27;45474;-51
2023/06/14 04:48:22;;;;;;;;;26.67;26.33;;;;;22.52;46.23;100967.66;5077727;27;45428;-49
2023/06/14 04:50:48;;;;;;;;;30.00;25.00;;;;;22.51;46.22;100974.09;5077523;27;45402;-52
2023/06/14 04:53:13;;;;;;;;;30.00;27.33;;;;;22.51;46.82;100967.81;5080251;27;45516;-49
2023/06/14 04:55:44;;;;;;;;;25.00;23.00;;;;;22.65;46.86;100974.59;5083076;27;75064;-49
2023/06/14 04:58:12;;;;;;;;;32.33;28.67;;;;;22.73;46.60;100971.97;5077206;27;45486;-48
2023/06/14 05:00:38;;;;;;;;;27.33;26.33;;;;;22.76;46.15;100969.81;5083377;27;45314;-50
2023/06/14 05:03:05;;;;;;;;;28.33;27.00;;;;;22.77;46.15;100968.78;5086958;27;45621;-49
2023/06/14 05:05:30;;;;;;;;;27.00;25.67;;;;;22.80;45.74;100965.78;5087208;27;46164;-50
2023/06/14 05:07:56;;;;;;;;;29.33;26.67;;;;;22.86;45.40;100968.91;5087642;27;45443;-51
2023/06/14 05:10:21;;;;;;;;;31.00;28.67;;;;;22.89;45.99;100972.16;5083883;27;52414;-50
2023/06/14 05:12:48;;;;;;;;;30.67;27.33;;;;;22.92;45.60;100979.16;5081701;27;45417;-50
2023/06/14 05:15:14;;;;;;;;;27.67;26.67;;;;;22.98;45.44;100973.09;5086081;27;46230;-50
2023/06/14 05:17:40;;;;;;;;;27.33;27.00;;;;;23.04;45.24;100971.63;5080798;27;45460;-51
2023/06/14 05:20:06;;;;;;;;;26.33;26.33;;;;;23.07;44.98;100974.88;5082275;27;45873;-50
2023/06/14 05:22:32;;;;;;;;;26.33;24.67;;;;;23.14;44.84;100969.72;5086817;27;45487;-52
2023/06/14 05:24:57;;;;;;;;;34.00;30.33;;;;;23.20;44.85;100973.69;5079030;27;72865;-50
2023/06/14 05:27:23;;;;;;;;;26.33;26.33;;;;;23.24;44.48;100969.63;5089051;27;59097;-52
2023/06/14 05:29:49;;;;;;;;;27.67;25.00;;;;;23.29;44.96;100978.16;5087843;27;45495;-50
2023/06/14 05:32:15;;;;;;;;;29.33;24.67;;;;;23.35;44.84;100976.69;5091519;27;45568;-50
2023/06/14 05:34:40;;;;;;;;;26.00;26.00;;;;;23.40;44.97;100979.78;5085861;27;46360;-51
2023/06/14 05:37:05;;;;;;;;;28.33;25.00;;;;;23.45;44.73;100977.44;5081600;27;66687;-51
2023/06/14 05:39:31;;;;;;;;;23.67;22.67;;;;;23.50;44.46;100983.25;5090380;27;61821;-48
2023/06/14 05:41:56;;;;;;;;;27.00;27.00;;;;;23.54;44.32;100984.63;5084092;27;48190;-50
2023/06/14 05:44:21;;;;;;;;;32.00;26.33;;;;;23.68;44.50;100985.09;5084976;27;73331;-48
2023/06/14 05:46:47;;;;;;;;;31.00;28.00;;;;;23.93;43.65;100991.59;5082161;27;70394;-48
2023/06/14 05:49:12;;;;;;;;;32.00;29.67;;;;;24.11;43.37;100986.94;5086954;27;68858;-50
2023/06/14 05:51:37;;;;;;;;;31.67;26.67;;;;;24.19;43.53;100986.13;5079401;27;52005;-47
2023/06/14 05:54:03;;;;;;;;;29.33;28.67;;;;;24.24;43.27;100983.78;5080534;27;47628;-48
2023/06/14 05:56:28;;;;;;;;;29.00;29.00;;;;;24.29;43.31;100983.31;5080438;27;46149;-49
2023/06/14 05:58:53;;;;;;;;;35.67;30.67;;;;;24.32;43.17;100988.41;5081691;27;63009;-51
2023/06/14 06:01:20;;;;;;;;;35.33;27.00;;;;;24.35;42.97;100989.94;5093557;27;45649;-51
2023/06/14 06:03:45;;;;;;;;;29.67;27.00;;;;;24.37;42.66;100996.09;5083226;27;45424;-49
2023/06/14 06:06:11;;;;;;;;;29.33;27.33;;;;;24.41;42.66;101001.00;5085577;27;45619;-49
2023/06/14 06:08:37;;;;;;;;;35.67;29.00;;;;;24.47;42.64;100993.22;5087563;27;45533;-50
2023/06/14 06:11:02;;;;;;;;;27.00;24.33;;;;;24.52;42.44;100999.91;5078439;27;48889;-52
2023/06/14 06:13:27;;;;;;;;;28.00;26.00;;;;;24.59;42.22;101005.53;5090040;27;46461;-50
2023/06/14 06:15:53;;;;;;;;;26.67;25.00;;;;;24.66;42.09;100997.59;5083739;27;68563;-52
2023/06/14 06:18:18;;;;;;;;;25.00;23.33;;;;;24.77;41.36;101003.56;5087182;27;45399;-52
2023/06/14 06:20:44;;;;;;;;;26.67;23.67;;;;;24.86;41.52;101004.47;5090877;27;65293;-51
2023/06/14 06:23:09;;;;;;;;;23.33;22.33;;;;;24.83;41.22;101003.94;5093095;27;45812;-49
2023/06/14 06:25:35;;;;;;;;;20.33;19.67;;;;;25.04;40.41;101008.91;5082168;27;46861;-52
2023/06/14 06:28:00;;;;;;;;;21.33;19.00;;;;;25.20;39.54;101005.34;5082935;27;68888;-51
2023/06/14 06:30:26;;;;;;;;;21.33;17.67;;;;;25.39;39.37;101006.94;5081954;27;45375;-52
2023/06/14 06:32:51;;;;;;;;;18.67;18.67;;;;;25.61;38.61;101010.03;5085637;27;45579;-51
2023/06/14 06:35:17;;;;;;;;;18.33;17.33;;;;;25.92;37.17;101015.63;5086753;27;45516;-52
2023/06/14 06:37:42;;;;;;;;;19.67;16.33;;;;;26.86;37.62;101013.13;5084147;27;45675;-50
2023/06/14 06:40:08;;;;;;;;;18.67;16.67;;;;;28.44;35.77;101013.50;5067444;27;46972;-48
2023/06/14 06:42:34;;;;;;;;;19.00;19.00;;;;;29.93;33.46;101014.06;5080194;27;46498;-50
2023/06/14 06:44:59;;;;;;;;;17.67;17.00;;;;;31.41;32.62;101015.59;5084031;27;45521;-52
2023/06/14 06:47:25;;;;;;;;;16.33;16.33;;;;;32.85;30.71;101017.72;5101762;27;63292;-51
2023/06/14 06:49:50;;;;;;;;;14.67;14.33;;;;;34.05;28.88;101025.09;5077216;27;46115;-49
2023/06/14 06:52:16;;;;;;;;;16.33;16.33;;;;;35.27;27.87;101022.59;5090417;27;47093;-51
2023/06/14 06:54:41;;;;;;;;;18.33;16.00;;;;;36.14;27.01;101020.28;5098817;27;69176;-49
2023/06/14 06:57:06;;;;;;;;;16.67;16.67;;;;;36.99;25.32;101029.00;5076937;27;45639;-51
2023/06/14 06:59:32;;;;;;;;;19.00;16.33;;;;;37.60;24.69;101031.22;5085869;27;45866;-51
2023/06/14 07:01:58;;;;;;;;;16.00;16.00;;;;;38.27;23.81;101038.66;5089113;27;45826;-51
2023/06/14 07:04:23;;;;;;;;;18.67;16.33;;;;;38.99;22.95;101038.72;5092753;27;55482;-52
2023/06/14 07:06:48;;;;;;;;;18.00;16.33;;;;;39.52;17.80;101036.19;5083755;27;45464;-49
2023/06/14 07:09:16;;;;;;;;;16.33;14.33;;;;;40.05;21.59;101035.47;5081724;27;54873;-52
2023/06/14 07:11:44;;;;;;;;;17.33;16.33;;;;;40.75;20.66;101038.06;5084652;27;46610;-51
2023/06/14 07:14:10;;;;;;;;;17.00;15.67;;;;;41.50;20.30;101043.25;5084868;27;45472;-49
2023/06/14 07:16:35;;;;;;;;;16.33;14.00;;;;;42.25;19.70;101034.22;5080800;27;59143;-51
2023/06/14 07:19:02;;;;;;;;;13.67;13.67;;;;;42.87;19.81;101049.88;5097384;27;45541;-50
2023/06/14 07:21:27;;;;;;;;;15.33;14.33;;;;;43.33;18.71;101051.56;5091396;27;47355;-49
2023/06/14 07:23:53;;;;;;;;;15.33;13.33;;;;;43.66;17.42;101065.84;5103192;27;66794;-51
2023/06/14 07:26:19;;;;;;;;;17.33;14.33;;;;;44.16;16.75;101052.47;5075789;27;45963;-49
2023/06/14 07:28:44;;;;;;;;;15.67;14.33;;;;;44.67;17.57;101061.38;5079215;27;45422;-52
2023/06/14 07:31:10;;;;;;;;;13.67;13.67;;;;;45.03;16.78;101063.72;5078856;27;45629;-53
2023/06/14 07:33:35;;;;;;;;;15.33;15.33;;;;;45.44;14.75;101065.88;5099706;27;45534;-51
2023/06/14 07:36:01;;;;;;;;;14.00;13.00;;;;;45.95;15.88;101066.13;5079551;27;60273;-53
2023/06/14 07:38:26;;;;;;;;;16.00;16.00;;;;;46.57;15.33;101068.56;5089978;27;45638;-53
2023/06/14 07:40:52;;;;;;;;;14.67;14.67;;;;;47.14;14.31;101070.13;5078232;27;46270;-52
2023/06/14 07:43:17;;;;;;;;;17.00;14.33;;;;;47.53;14.26;101072.25;5100436;27;45394;-53
2023/06/14 07:45:42;;;;;;;;;15.00;14.00;;;;;47.69;14.08;101080.28;5087536;27;46627;-53
2023/06/14 07:48:09;;;;;;;;;16.67;16.67;;;;;48.02;14.14;101085.63;5088412;27;45610;-53
2023/06/14 07:50:34;;;;;;;;;18.00;17.00;;;;;48.49;13.26;101083.16;5086224;27;65518;-53
2023/06/14 07:52:59;;;;;;;;;14.67;14.00;;;;;48.97;13.24;101077.78;5085954;27;50585;-51
2023/06/14 07:55:25;;;;;;;;;14.33;14.33;;;;;49.36;13.27;101077.97;5081253;27;45449;-53
2023/06/14 07:57:50;;;;;;;;;13.00;13.00;;;;;49.75;12.72;101081.72;5100249;27;45464;-53
2023/06/14 08:00:17;;;;;;;;;14.67;12.67;;;;;50.13;12.22;101080.91;5083395;27;46294;-54
2023/06/14 08:02:44;;;;;;;;;16.00;14.67;;;;;50.22;10.84;101075.22;5067803;27;45484;-53
2023/06/14 08:05:11;;;;;;;;;13.67;13.67;;;;;50.18;11.37;101079.91;5084404;27;45576;-53
2023/06/14 08:07:36;;;;;;;;;18.00;14.33;;;;;50.36;11.62;101078.66;5085551;27;45508;-53
2023/06/14 08:10:02;;;;;;;;;15.00;12.67;;;;;50.86;10.98;101084.66;5084990;27;45507;-54
2023/06/14 08:12:27;;;;;;;;;14.67;14.67;;;;;51.10;9.64;101087.66;5082181;27;45524;-54
2023/06/14 08:14:52;;;;;;;;;18.00;16.67;;;;;51.26;10.82;101087.81;5091105;27;45489;-53
2023/06/14 08:17:18;;;;;;;;;11.33;11.33;;;;;51.69;10.15;101082.09;5088565;27;45566;-51
2023/06/14 08:19:43;;;;;;;;;14.00;13.67;;;;;52.23;9.68;101084.78;5084518;27;46955;-53
2023/06/14 08:22:11;;;;;;;;;10.00;10.00;;;;;52.75;9.56;101085.16;5084516;27;60042;-53
2023/06/14 08:24:36;;;;;;;;;12.33;12.33;;;;;53.12;9.13;101084.25;5088704;27;46437;-54
2023/06/14 08:27:02;;;;;;;;;12.67;12.67;;;;;53.59;9.68;101086.41;5077404;27;46407;-54
2023/06/14 08:29:30;;;;;;;;;16.33;13.67;;;;;54.08;9.31;101085.22;5086896;27;46225;-54
2023/06/14 08:31:55;;;;;;;;;17.33;15.33;;;;;54.55;8.42;101077.84;5078372;27;45531;-54
2023/06/14 08:34:21;;;;;;;;;13.00;13.00;;;;;54.72;6.38;101088.81;5084322;27;66411;-54
2023/06/14 08:36:46;;;;;;;;;16.00;14.00;;;;;55.00;7.59;101096.31;5084035;27;46967;-54
2023/06/14 08:39:11;;;;;;;;;18.67;15.67;;;;;55.49;8.02;101089.19;5088227;27;48726;-55
2023/06/14 08:41:37;;;;;;;;;15.00;12.67;;;;;55.68;8.06;101087.47;5094149;27;63736;-54
2023/06/14 08:44:03;;;;;;;;;14.33;14.33;;;;;55.68;7.72;101088.28;5089249;27;46050;-55
2023/06/14 08:46:33;;;;;;;;;12.67;12.67;;;;;56.17;7.64;101088.72;5087601;27;45461;-55
2023/06/14 08:48:59;;;;;;;;;12.33;12.00;;;;;56.66;7.37;101098.41;5079753;27;46453;-55
2023/06/14 08:51:26;;;;;;;;;13.67;13.67;;;;;57.29;7.70;101095.94;5082169;27;46238;-55
2023/06/14 08:53:58;;;;;;;;;18.00;15.33;;;;;58.01;7.21;101093.81;5086681;27;45573;-55
2023/06/14 08:56:27;;;;;;;;;13.33;12.33;;;;;58.56;6.25;101092.13;5092357;27;45616;-55
2023/06/14 08:58:53;;;;;;;;;11.67;11.33;;;;;59.14;6.59;101095.25;5090322;27;45540;-55
2023/06/14 09:01:19;;;;;;;;;15.00;12.00;;;;;59.92;5.86;101097.41;5087496;27;46251;-55
2023/06/14 09:03:45;;;;;;;;;14.33;12.33;;;;;60.78;5.91;101106.25;5092207;27;45525;-56
2023/06/14 09:06:13;;;;;;;;;16.33;15.00;;;;;61.68;5.32;101109.41;5100345;27;45558;-56
2023/06/14 09:08:46;;;;;;;;;17.33;14.67;;;;;62.39;5.39;101105.47;5090014;27;46367;-56
2023/06/14 09:11:16;;;;;;;;;13.33;13.33;;;;;62.80;4.53;101107.44;5089208;27;45452;-56
2023/06/14 09:13:42;;;;;;;;;13.67;13.00;;;;;63.05;5.04;101103.41;5089194;27;45406;-56
2023/06/14 09:16:08;;;;;;;;;11.33;11.33;;;;;63.43;5.07;101101.16;5084815;27;48774;-56
2023/06/14 09:18:38;;;;;;;;;17.00;14.33;;;;;64.05;4.32;101103.81;5088868;27;45740;-56
2023/06/14 09:21:03;;;;;;;;;13.00;13.00;;;;;64.21;4.38;101105.19;5084248;27;45504;-56
2023/06/14 09:23:28;;;;;;;;;13.67;13.67;;;;;64.26;3.47;101105.50;5107967;27;45701;-56
2023/06/14 09:25:54;;;;;;;;;14.00;14.00;;;;;64.06;3.70;101104.63;5089564;27;48208;-56
2023/06/14 09:28:22;;;;;;;;;9.67;9.33;;;;;63.87;3.26;101106.22;5103019;27;46011;-56
2023/06/14 09:30:47;;;;;;;;;13.33;12.67;;;;;63.90;3.02;101105.34;5091096;27;45405;-56
2023/06/14 09:33:17;;;;;;;;;11.67;11.67;;;;;63.87;3.43;101107.06;5090169;27;45413;-56
2023/06/14 09:35:45;;;;;;;;;11.67;11.67;;;;;64.12;3.50;101097.94;5099005;27;45504;-56
2023/06/14 09:38:11;;;;;;;;;10.00;10.00;;;;;64.36;2.39;101106.53;5091847;27;45505;-56
2023/06/14 09:40:36;;;;;;;;;12.00;12.00;;;;;64.29;3.11;101103.78;5092929;27;45459;-56
2023/06/14 09:43:05;;;;;;;;;10.33;9.67;;;;;64.25;2.01;101100.16;5081308;27;45424;-56
2023/06/14 09:45:31;;;;;;;;;10.00;10.00;;;;;64.23;2.88;101103.50;5106734;27;45904;-57
2023/06/14 09:47:58;;;;;;;;;14.33;14.33;;;;;64.86;2.34;101103.81;5088016;27;45409;-56
2023/06/14 09:50:23;;;;;;;;;10.67;10.00;;;;;65.48;1.39;101103.25;5097557;27;45463;-57
2023/06/14 09:52:52;;;;;;;;;12.67;11.67;;;;;65.63;2.12;101107.38;5089944;27;67933;-56
2023/06/14 09:55:19;;;;;;;;;11.67;11.67;;;;;65.66;2.39;101102.78;5090561;27;46254;-56
2023/06/14 09:57:45;;;;;;;;;12.33;12.33;;;;;65.51;2.45;101105.22;5086423;27;65111;-56
2023/06/14 10:00:12;;;;;;;;;10.67;10.67;;;;;65.49;2.41;101110.66;5092290;27;45502;-57
2023/06/14 10:02:39;;;;;;;;;11.67;11.67;;;;;65.53;1.32;101105.59;5095430;27;45485;-57
2023/06/14 10:05:06;;;;;;;;;9.00;9.00;;;;;66.07;1.34;101113.66;5089625;27;45665;-57
2023/06/14 10:07:35;;;;;;;;;11.00;11.00;;;;;66.86;1.09;101127.13;5093760;27;46953;-57
2023/06/14 10:10:01;;;;;;;;;11.33;11.33;;;;;66.95;1.99;101118.53;5091259;27;45953;-56
2023/06/14 10:12:27;;;;;;;;;11.00;11.00;;;;;67.06;1.16;101116.09;5103287;27;45627;-57
2023/06/14 10:14:53;;;;;;;;;14.33;12.67;;;;;66.91;1.31;101106.25;5098797;27;45512;-56
2023/06/14 10:17:43;;;;;;;;;10.33;10.33;;;;;66.72;0.93;101111.78;5083733;27;47484;-57
2023/06/14 10:20:23;;;;;;;;;10.00;9.33;;;;;66.73;1.31;101106.78;5083256;27;45427;-57
2023/06/14 10:22:51;;;;;;;;;10.67;10.67;;;;;66.58;1.07;101106.44;5083128;27;45533;-56
2023/06/14 10:25:28;;;;;;;;;12.00;12.00;;;;;66.08;0.74;101106.63;5080590;27;45290;-56
2023/06/14 10:28:02;;;;;;;;;12.00;11.00;;;;;65.83;1.04;101109.38;5085470;27;46430;-56
2023/06/14 10:30:28;;;;;;;;;10.33;10.33;;;;;65.98;1.06;101101.09;5104765;27;45461;-57
2023/06/14 10:33:05;;;;;;;;;11.33;11.33;;;;;66.48;1.05;101096.78;5087897;27;45592;-55
2023/06/14 10:35:30;;;;;;;;;13.33;12.67;;;;;67.03;1.68;101102.53;5085492;27;45521;-57
2023/06/14 10:38:06;;;;;;;;;10.67;10.33;;;;;66.96;1.27;101099.88;5082040;27;54244;-54
2023/06/14 10:40:33;;;;;;;;;10.33;10.33;;;;;66.62;0.63;101094.72;5079186;27;45452;-57
2023/06/14 10:42:58;;;;;;;;;13.33;13.00;;;;;66.32;1.10;101100.56;5095353;27;45468;-57
2023/06/14 10:45:24;;;;;;;;;13.67;12.67;;;;;66.30;0.68;101090.72;5083127;27;58933;-57
2023/06/14 10:47:52;;;;;;;;;14.00;13.00;;;;;66.68;1.03;101085.00;5098753;27;45338;-57
2023/06/14 10:50:19;;;;;;;;;11.00;11.00;;;;;67.25;1.13;101086.53;5083257;27;45311;-57
2023/06/14 10:52:45;;;;;;;;;11.00;11.00;;;;;67.16;1.14;101087.25;5079998;27;45351;-57
2023/06/14 10:55:18;;;;;;;;;11.00;11.00;;;;;66.93;0.97;101083.41;5083397;27;45936;-55
2023/06/14 10:57:51;;;;;;;;;11.67;11.67;;;;;66.57;0.71;101082.44;5100576;27;47063;-55
2023/06/14 11:00:17;;;;;;;;;14.00;13.00;;;;;66.60;0.80;101072.03;5080064;27;45447;-55
2023/06/14 11:03:04;;;;;;;;;12.00;12.00;;;;;66.77;0.56;101078.50;5095044;27;45647;-56
2023/06/14 11:05:30;;;;;;;;;13.00;13.00;;;;;65.71;0.84;101077.00;5073704;27;45826;-56
2023/06/14 11:08:11;;;;;;;;;12.67;12.67;;;;;64.97;1.89;101069.75;5082914;27;60930;-56
2023/06/14 11:10:41;;;;;;;;;11.00;11.00;;;;;64.59;1.54;101068.09;5086325;27;45418;-57